Monday, December 18, 2017, 5:54 AM EST
Back to Local

KJST, Johnstown-cambria Co Airport

Location: Johnstown, PA, United States Lat: 40.317
Local Time: 5:54 AM EST (10:54 GMT) Lon: -78.833
Time Zone: US/Eastern Elev: 2283 ft

Show me the last for .
Show Decoded

2017-12-18 04:54 METAR KJST 180954Z AUTO 23008KT 10SM BKN050 02/M02 A3002 RMK AO2 SLP182
                 T00221017 =
2017-12-18 03:54 METAR KJST 180854Z AUTO 23008KT 10SM FEW027 OVC060 02/M02 A3004 RMK AO2 SLP189
                 T00221017 55000 =
2017-12-18 03:51 METAR KJST 180851Z AUTO 22008KT 10SM FEW027 OVC060 02/M02 A3004 RMK AO2 =
2017-12-18 02:54 METAR KJST 180754Z AUTO 23007KT 10SM BKN027 OVC034 02/M02 A3003 RMK AO2 SLP188
                 T00221017 =
2017-12-18 01:54 METAR KJST 180654Z AUTO 26010KT 10SM OVC042 02/M02 A3004 RMK AO2 SLP189
                 T00221017 =
2017-12-18 00:54 METAR KJST 180554Z AUTO 23007KT 10SM OVC050 02/M01 A3003 RMK AO2 SLP187 60000
                 T00221011 10028 20017 58008 =
2017-12-17 23:54 METAR KJST 180454Z AUTO 24008KT 10SM SCT041 BKN050 OVC060 03/M02 A3005 RMK AO2
                 SLP194 T00281017 400330006 =
2017-12-17 22:54 METAR KJST 180354Z AUTO 20008KT 10SM OVC049 03/M01 A3005 RMK AO2 SLP193
                 T00281011 =
2017-12-17 21:54 METAR KJST 180254Z AUTO 19004KT 10SM OVC065 02/M01 A3006 RMK AO2 SLP200 60000
                 T00171006 58010 =
2017-12-17 20:54 METAR KJST 180154Z AUTO 24004KT 10SM SCT030 OVC060 02/M01 A3008 RMK AO2 SLP208
                 T00221006 =
2017-12-17 20:41 METAR KJST 180141Z AUTO 20005KT 10SM BKN030 OVC060 02/00 A3008 RMK AO2 T00220000
                 =
2017-12-17 19:54 METAR KJST 180054Z AUTO 19006KT 10SM OVC024 02/00 A3009 RMK AO2 SNE02 SLP210
                 P0000 T00170000 =
2017-12-17 18:54 METAR KJST 172354Z AUTO 22005KT 8SM -SN OVC023 02/00 A3009 RMK AO2
                 RAE29UPB29E42SNB46 SLP210 P0001 60004 T00170000 10033 20017 50002 =
2017-12-17 18:36 METAR KJST 172336Z AUTO 20006KT 10SM UP BKN023 OVC048 02/00 A3010 RMK AO2
                 RAE29UPB29 P0001 T00170000 =
2017-12-17 17:54 METAR KJST 172254Z AUTO 20007KT 8SM -RA OVC040 02/00 A3009 RMK AO2
                 UPB13E15RAB15SNB29E40 SLP211 P0003 T00170000 =
2017-12-17 16:54 METAR KJST 172154Z AUTO 21008KT 10SM BKN050 BKN070 OVC080 03/M02 A3011 RMK AO2
                 SLP214 T00281022 =
2017-12-17 15:54 METAR KJST 172054Z AUTO 23005KT 10SM FEW070 OVC090 03/M02 A3008 RMK AO2 SLP206
                 T00331022 55005 =
2017-12-17 14:54 METAR KJST 171954Z AUTO 19005KT 10SM BKN120 03/M02 A3007 RMK AO2 SLP201
                 T00331022 =
2017-12-17 13:54 METAR KJST 171854Z AUTO 21006KT 10SM CLR 03/M03 A3009 RMK AO2 SLP208 T00331028 =
2017-12-17 12:54 METAR KJST 171754Z AUTO 22004KT 10SM FEW120 03/M03 A3010 RMK AO2 SLP211
                 T00281028 10028 20006 58019 =
2017-12-17 11:54 METAR KJST 171654Z AUTO 23005KT 10SM CLR 02/M02 A3013 RMK AO2 SLP223 T00221022 =
2017-12-17 10:54 METAR KJST 171554Z AUTO 24008KT 10SM CLR 02/M03 A3019 RMK AO2 SLP244 T00171028 =
2017-12-17 09:54 METAR KJST 171454Z AUTO 23005KT 10SM CLR 01/M03 A3016 RMK AO2 SLP234 T00111033
                 53004 =
2017-12-17 08:54 METAR KJST 171354Z AUTO 23005KT 10SM CLR 01/M03 A3016 RMK AO2 SLP233 T00061033 =
2017-12-17 07:54 METAR KJST 171254Z AUTO 25005KT 10SM CLR 01/M03 A3014 RMK AO2 SLP229 T00111033 =
2017-12-17 06:54 METAR KJST 171154Z AUTO 27009KT 10SM CLR 02/M03 A3015 RMK AO2 SLP230 T00171033
                 10028 20011 53007 =

Support USWX by starting your Amazon purchase here.